createdAt,value
2022-12-03T00:01:48.865Z,-20.57
2022-12-03T00:06:51.630Z,-20.50
2022-12-03T00:11:55.002Z,-20.57
2022-12-03T00:16:59.436Z,-20.74
2022-12-03T00:22:02.140Z,-20.67
2022-12-03T00:27:04.850Z,-20.74
2022-12-03T00:32:07.651Z,-20.63
2022-12-03T00:37:10.304Z,-20.58
2022-12-03T00:42:13.110Z,-20.50
2022-12-03T00:47:15.771Z,-20.51
2022-12-03T00:52:18.487Z,-20.51
2022-12-03T00:57:21.108Z,-20.82
2022-12-03T01:02:23.937Z,-20.50
2022-12-03T01:07:26.746Z,-20.37
2022-12-03T01:12:29.425Z,-20.41
2022-12-03T01:17:32.282Z,-20.50
2022-12-03T01:22:36.585Z,-20.61
2022-12-03T01:27:39.209Z,-20.50
2022-12-03T01:32:41.916Z,-20.64
2022-12-03T01:37:44.594Z,-20.59
2022-12-03T01:42:47.318Z,-20.50
2022-12-03T01:47:50.094Z,-20.50
2022-12-03T01:52:55.778Z,-20.46
2022-12-03T01:58:00.854Z,-20.50
2022-12-03T02:03:11.197Z,-20.48
2022-12-03T02:08:37.438Z,-20.50
2022-12-03T02:13:40.525Z,-20.43
2022-12-03T02:18:44.004Z,-20.43
2022-12-03T02:24:02.087Z,-20.49
2022-12-03T02:29:04.748Z,-20.62
2022-12-03T02:34:08.153Z,-20.55
2022-12-03T02:39:10.901Z,-20.44
2022-12-03T02:44:13.675Z,-20.42
2022-12-03T02:49:16.382Z,-20.42
2022-12-03T02:54:19.145Z,-20.38
2022-12-03T02:59:21.904Z,-20.39
2022-12-03T03:04:25.271Z,-20.38
2022-12-03T03:09:27.980Z,-20.44
2022-12-03T03:14:30.724Z,-20.30
2022-12-03T03:19:33.589Z,-20.18
2022-12-03T03:24:36.259Z,-20.12
2022-12-03T03:29:38.970Z,-20.21
2022-12-03T03:34:45.726Z,-19.90
2022-12-03T03:39:48.660Z,-19.68
2022-12-03T03:44:51.735Z,-19.64
2022-12-03T03:49:55.067Z,-19.46
2022-12-03T03:54:57.713Z,-19.32
2022-12-03T04:00:00.201Z,-19.26
2022-12-03T04:05:02.980Z,-19.28
2022-12-03T04:10:26.414Z,-19.16
2022-12-03T04:15:30.301Z,-19.09
2022-12-03T04:20:33.229Z,-19.09
2022-12-03T04:25:54.637Z,-19.09
2022-12-03T04:30:57.372Z,-18.98
2022-12-03T04:36:00.240Z,-18.91
2022-12-03T04:41:04.428Z,-18.82
2022-12-03T04:46:07.249Z,-18.78
2022-12-03T04:51:09.905Z,-18.63
2022-12-03T04:56:12.613Z,-18.61
2022-12-03T05:01:15.422Z,-18.56
2022-12-03T05:06:17.904Z,-18.54
2022-12-03T05:11:20.534Z,-18.62
2022-12-03T05:16:23.279Z,-18.58
2022-12-03T05:21:26.075Z,-18.48
2022-12-03T05:26:28.613Z,-18.27
2022-12-03T05:31:31.049Z,-18.17
2022-12-03T05:36:33.783Z,-18.03
2022-12-03T05:41:55.059Z,-17.94
2022-12-03T05:46:57.793Z,-17.81
2022-12-03T05:52:00.560Z,-17.78
2022-12-03T05:57:04.205Z,-17.64
2022-12-03T06:02:06.964Z,-17.54
2022-12-03T06:07:13.814Z,-17.32
2022-12-03T06:12:17.183Z,-17.19
2022-12-03T06:17:19.759Z,-17.00
2022-12-03T06:22:22.521Z,-16.84
2022-12-03T06:27:27.232Z,-16.78
2022-12-03T06:32:29.955Z,-16.99
2022-12-03T06:37:32.578Z,-16.74
2022-12-03T06:42:35.312Z,-16.79
2022-12-03T06:47:38.183Z,-16.80
2022-12-03T06:52:40.929Z,-16.87
2022-12-03T06:57:43.789Z,-16.80
2022-12-03T07:02:46.776Z,-16.63
2022-12-03T07:07:52.443Z,-16.60
2022-12-03T07:12:55.370Z,-16.53
2022-12-03T07:17:57.999Z,-16.53
2022-12-03T07:23:00.652Z,-16.63
2022-12-03T07:28:03.470Z,-16.67
2022-12-03T07:33:06.242Z,-16.47
2022-12-03T07:38:09.203Z,-16.40
2022-12-03T07:43:12.037Z,-16.37
2022-12-03T07:48:14.780Z,-16.39
2022-12-03T07:53:17.501Z,-16.42
2022-12-03T07:58:20.200Z,-16.33
2022-12-03T08:03:23.489Z,-16.29
2022-12-03T08:08:26.195Z,-16.24
2022-12-03T08:13:29.239Z,-16.55
2022-12-03T08:18:31.926Z,-16.32
2022-12-03T08:23:35.154Z,-16.34
2022-12-03T08:28:37.719Z,-16.47
2022-12-03T08:33:42.173Z,-16.56
2022-12-03T08:39:00.374Z,-16.81
2022-12-03T08:44:19.993Z,-16.97
2022-12-03T08:49:23.159Z,-17.16
2022-12-03T08:54:26.583Z,-17.40
2022-12-03T08:59:32.093Z,-17.38
2022-12-03T09:04:42.043Z,-17.34
2022-12-03T09:09:44.707Z,-17.33
2022-12-03T09:14:47.473Z,-17.38
2022-12-03T09:19:51.990Z,-17.59
2022-12-03T09:24:54.871Z,-17.83
2022-12-03T09:29:57.583Z,-18.02
2022-12-03T09:35:00.265Z,-18.23
2022-12-03T09:40:03.009Z,-18.39
2022-12-03T09:45:11.148Z,-18.61
2022-12-03T09:50:20.628Z,-18.68
2022-12-03T09:55:25.677Z,-18.75
2022-12-03T10:00:30.680Z,-18.77
2022-12-03T10:05:34.853Z,-18.77
2022-12-03T10:10:39.950Z,-18.79
2022-12-03T10:15:42.822Z,-18.89
2022-12-03T10:20:45.817Z,-18.70
2022-12-03T10:25:57.487Z,-18.69
2022-12-03T10:31:02.025Z,-18.70
2022-12-03T10:36:24.051Z,-18.65
2022-12-03T10:41:28.424Z,-18.61
2022-12-03T10:46:31.214Z,-18.64
2022-12-03T10:51:34.112Z,-18.54
2022-12-03T10:56:36.620Z,-18.56
2022-12-03T11:01:39.352Z,-18.58
2022-12-03T11:06:41.831Z,-18.68
2022-12-03T11:11:44.680Z,-18.88
2022-12-03T11:16:47.180Z,-19.10
2022-12-03T11:22:13.767Z,-19.22
2022-12-03T11:27:19.027Z,-19.39
2022-12-03T11:32:40.113Z,-19.58
2022-12-03T11:37:42.846Z,-19.67
2022-12-03T11:42:47.271Z,-20.01
2022-12-03T11:47:59.117Z,-19.74
2022-12-03T11:53:03.319Z,-19.72
2022-12-03T11:58:22.172Z,-19.74
2022-12-03T12:03:33.948Z,-19.73
2022-12-03T12:08:42.336Z,-19.74
2022-12-03T12:13:45.200Z,-19.60
2022-12-03T12:18:55.741Z,-19.53
2022-12-03T12:24:31.840Z,-19.52
2022-12-03T12:29:35.640Z,-19.60
2022-12-03T12:34:43.088Z,-19.97
2022-12-03T12:39:46.107Z,-19.86
2022-12-03T12:44:50.541Z,-19.96
2022-12-03T12:49:53.863Z,-19.92
2022-12-03T12:55:01.646Z,-19.97
2022-12-03T13:00:08.049Z,-20.02
2022-12-03T13:05:12.945Z,-20.09
2022-12-03T13:10:36.193Z,-20.12
2022-12-03T13:15:49.594Z,-20.15
2022-12-03T13:20:52.981Z,-20.21
2022-12-03T13:26:03.753Z,-20.38
2022-12-03T13:31:30.138Z,-20.34
2022-12-03T13:36:38.520Z,-20.42
2022-12-03T13:42:01.035Z,-20.53
2022-12-03T13:47:13.641Z,-20.46
2022-12-03T13:52:20.017Z,-20.59
2022-12-03T13:57:23.376Z,-20.59
2022-12-03T14:02:26.326Z,-20.61
2022-12-03T14:07:29.237Z,-20.79
2022-12-03T14:12:34.142Z,-20.67
2022-12-03T14:17:37.130Z,-20.59
2022-12-03T14:22:39.851Z,-20.85
2022-12-03T14:27:42.628Z,-20.63
2022-12-03T14:32:45.577Z,-20.70
2022-12-03T14:37:48.281Z,-20.76
2022-12-03T14:42:50.993Z,-20.79
2022-12-03T14:47:53.657Z,-20.85
2022-12-03T14:52:56.432Z,-21.00
2022-12-03T14:57:59.073Z,-20.86
2022-12-03T15:03:01.894Z,-20.94
2022-12-03T15:08:04.943Z,-20.93
2022-12-03T15:13:07.642Z,-20.98
2022-12-03T15:18:10.366Z,-20.96
2022-12-03T15:23:14.667Z,-21.05
2022-12-03T15:28:17.838Z,-21.07
2022-12-03T15:33:20.692Z,-21.08
2022-12-03T15:38:23.433Z,-21.27
2022-12-03T15:43:26.140Z,-21.23
2022-12-03T15:48:28.839Z,-21.28
2022-12-03T15:53:31.540Z,-21.27
2022-12-03T15:58:34.610Z,-21.40
2022-12-03T16:03:37.456Z,-21.37
2022-12-03T16:08:40.314Z,-21.41
2022-12-03T16:13:42.952Z,-21.41
2022-12-03T16:18:45.756Z,-21.43
2022-12-03T16:23:48.404Z,-21.46
2022-12-03T16:28:51.165Z,-21.59
2022-12-03T16:33:55.214Z,-21.55
2022-12-03T16:38:58.479Z,-21.64
2022-12-03T16:44:03.438Z,-21.51
2022-12-03T16:49:07.401Z,-21.60
2022-12-03T16:54:12.088Z,-21.62
2022-12-03T16:59:14.710Z,-21.61
2022-12-03T17:04:32.589Z,-21.59
2022-12-03T17:09:35.273Z,-21.62
2022-12-03T17:14:37.905Z,-21.73
2022-12-03T17:19:40.570Z,-21.77
2022-12-03T17:24:43.267Z,-21.71
2022-12-03T17:29:45.913Z,-21.87
2022-12-03T17:34:48.667Z,-21.85
2022-12-03T17:39:52.708Z,-21.99
2022-12-03T17:44:55.572Z,-21.88
2022-12-03T17:50:00.014Z,-21.87
2022-12-03T17:55:11.719Z,-21.89
2022-12-03T18:00:15.964Z,-21.91
2022-12-03T18:05:18.971Z,-21.88
2022-12-03T18:10:21.768Z,-21.90
2022-12-03T18:15:24.426Z,-21.97
2022-12-03T18:20:27.195Z,-21.94
2022-12-03T18:25:30.186Z,-22.01
2022-12-03T18:30:32.849Z,-22.03
2022-12-03T18:35:35.720Z,-22.03
2022-12-03T18:40:38.688Z,-22.12
2022-12-03T18:45:42.388Z,-22.11
2022-12-03T18:50:46.537Z,-22.17
2022-12-03T18:55:49.417Z,-22.13
2022-12-03T19:00:53.902Z,-22.11
2022-12-03T19:05:57.553Z,-22.11
2022-12-03T19:11:00.777Z,-22.17
2022-12-03T19:16:06.033Z,-22.12
2022-12-03T19:21:13.649Z,-22.10
2022-12-03T19:26:16.349Z,-22.06
2022-12-03T19:31:19.316Z,-22.03
2022-12-03T19:36:25.900Z,-21.97
2022-12-03T19:41:31.015Z,-21.97
2022-12-03T19:46:33.890Z,-22.05
2022-12-03T19:51:37.065Z,-21.98
2022-12-03T19:56:39.809Z,-21.91
2022-12-03T20:01:43.675Z,-21.89
2022-12-03T20:06:46.400Z,-21.83
2022-12-03T20:11:51.377Z,-21.81
2022-12-03T20:16:54.134Z,-21.83
2022-12-03T20:22:02.292Z,-21.72
2022-12-03T20:27:05.327Z,-21.71
2022-12-03T20:32:08.032Z,-21.78
2022-12-03T20:37:10.694Z,-21.74
2022-12-03T20:42:13.390Z,-21.71
2022-12-03T20:47:16.869Z,-21.71
2022-12-03T20:52:19.598Z,-22.23
2022-12-03T20:57:22.226Z,-21.72
2022-12-03T21:02:25.082Z,-21.64
2022-12-03T21:07:27.950Z,-21.74
2022-12-03T21:12:30.711Z,-21.82
2022-12-03T21:17:34.036Z,-21.52
2022-12-03T21:22:36.899Z,-21.57
2022-12-03T21:27:39.542Z,-21.51
2022-12-03T21:32:42.193Z,-21.52
2022-12-03T21:37:44.981Z,-21.48
2022-12-03T21:42:47.892Z,-21.48
2022-12-03T21:47:50.558Z,-21.37
2022-12-03T21:52:53.353Z,-21.29
2022-12-03T21:57:56.028Z,-21.24
2022-12-03T22:02:58.690Z,-21.24
2022-12-03T22:08:01.430Z,-21.35
2022-12-03T22:13:04.123Z,-21.40
2022-12-03T22:18:06.899Z,-21.52
2022-12-03T22:23:09.540Z,-21.73
2022-12-03T22:28:12.216Z,-21.45
2022-12-03T22:33:14.871Z,-21.34
2022-12-03T22:38:17.567Z,-21.32
2022-12-03T22:43:20.910Z,-21.34
2022-12-03T22:48:24.389Z,-21.30
2022-12-03T22:53:27.137Z,-21.39
2022-12-03T22:58:29.841Z,-21.44
2022-12-03T23:03:32.465Z,-21.40
2022-12-03T23:08:35.414Z,-21.48
2022-12-03T23:13:38.101Z,-21.37
2022-12-03T23:18:40.798Z,-21.42
2022-12-03T23:23:43.492Z,-21.29
2022-12-03T23:28:46.652Z,-21.23
2022-12-03T23:33:49.740Z,-21.15
2022-12-03T23:38:52.556Z,-21.14
2022-12-03T23:43:55.316Z,-21.16
2022-12-03T23:48:59.250Z,-21.11
2022-12-03T23:54:02.004Z,-21.15
2022-12-03T23:59:04.631Z,-21.14
